sensor_id;sensor_type;location;lat;lon;timestamp;P1;durP1;ratioP1;P2;durP2;ratioP2
14858;SDS011;7521;51.700;6.874;2023-05-10T00:01:18;12.67;;;10.67;;
14858;SDS011;7521;51.700;6.874;2023-05-10T00:04:23;14.23;;;11.15;;
14858;SDS011;7521;51.700;6.874;2023-05-10T00:07:32;13.27;;;10.23;;
14858;SDS011;7521;51.700;6.874;2023-05-10T00:10:37;12.35;;;10.80;;
14858;SDS011;7521;51.700;6.874;2023-05-10T00:13:42;11.63;;;9.47;;
14858;SDS011;7521;51.700;6.874;2023-05-10T00:16:47;11.68;;;9.60;;
14858;SDS011;7521;51.700;6.874;2023-05-10T00:19:52;11.10;;;9.50;;
14858;SDS011;7521;51.700;6.874;2023-05-10T00:22:58;12.25;;;9.88;;
14858;SDS011;7521;51.700;6.874;2023-05-10T00:26:03;13.00;;;11.60;;
14858;SDS011;7521;51.700;6.874;2023-05-10T00:29:08;11.98;;;10.57;;
14858;SDS011;7521;51.700;6.874;2023-05-10T00:32:13;12.13;;;10.70;;
14858;SDS011;7521;51.700;6.874;2023-05-10T00:35:19;14.45;;;11.80;;
14858;SDS011;7521;51.700;6.874;2023-05-10T00:38:24;13.60;;;11.50;;
14858;SDS011;7521;51.700;6.874;2023-05-10T00:41:29;13.33;;;11.03;;
14858;SDS011;7521;51.700;6.874;2023-05-10T00:44:37;14.60;;;11.30;;
14858;SDS011;7521;51.700;6.874;2023-05-10T00:47:42;15.67;;;11.90;;
14858;SDS011;7521;51.700;6.874;2023-05-10T00:50:48;14.43;;;11.33;;
14858;SDS011;7521;51.700;6.874;2023-05-10T00:53:53;11.77;;;8.90;;
14858;SDS011;7521;51.700;6.874;2023-05-10T00:56:58;11.00;;;9.20;;
14858;SDS011;7521;51.700;6.874;2023-05-10T01:00:04;11.15;;;9.45;;
14858;SDS011;7521;51.700;6.874;2023-05-10T01:03:10;11.53;;;9.97;;
14858;SDS011;7521;51.700;6.874;2023-05-10T01:06:15;10.33;;;8.90;;
14858;SDS011;7521;51.700;6.874;2023-05-10T01:09:21;10.00;;;8.90;;
14858;SDS011;7521;51.700;6.874;2023-05-10T01:12:26;8.93;;;8.00;;
14858;SDS011;7521;51.700;6.874;2023-05-10T01:15:31;8.97;;;7.60;;
14858;SDS011;7521;51.700;6.874;2023-05-10T01:18:38;8.60;;;7.23;;
14858;SDS011;7521;51.700;6.874;2023-05-10T01:28:32;8.60;;;6.93;;
14858;SDS011;7521;51.700;6.874;2023-05-10T01:35:08;8.33;;;7.43;;
14858;SDS011;7521;51.700;6.874;2023-05-10T01:38:19;10.47;;;8.87;;
14858;SDS011;7521;51.700;6.874;2023-05-10T01:48:05;11.53;;;10.33;;
14858;SDS011;7521;51.700;6.874;2023-05-10T01:51:10;13.97;;;10.83;;
14858;SDS011;7521;51.700;6.874;2023-05-10T01:54:16;11.70;;;10.37;;
14858;SDS011;7521;51.700;6.874;2023-05-10T01:57:23;11.67;;;9.83;;
14858;SDS011;7521;51.700;6.874;2023-05-10T02:00:30;13.13;;;10.40;;
14858;SDS011;7521;51.700;6.874;2023-05-10T02:03:36;11.87;;;10.07;;
14858;SDS011;7521;51.700;6.874;2023-05-10T02:06:43;14.07;;;10.50;;
14858;SDS011;7521;51.700;6.874;2023-05-10T02:09:49;13.83;;;11.13;;
14858;SDS011;7521;51.700;6.874;2023-05-10T02:12:55;16.40;;;11.57;;
14858;SDS011;7521;51.700;6.874;2023-05-10T02:16:03;14.50;;;11.63;;
14858;SDS011;7521;51.700;6.874;2023-05-10T02:19:09;17.23;;;13.57;;
14858;SDS011;7521;51.700;6.874;2023-05-10T02:22:15;17.03;;;13.17;;
14858;SDS011;7521;51.700;6.874;2023-05-10T02:25:21;19.77;;;14.53;;
14858;SDS011;7521;51.700;6.874;2023-05-10T02:28:27;19.30;;;14.07;;
14858;SDS011;7521;51.700;6.874;2023-05-10T02:31:32;20.60;;;15.17;;
14858;SDS011;7521;51.700;6.874;2023-05-10T02:34:38;22.17;;;16.07;;
14858;SDS011;7521;51.700;6.874;2023-05-10T02:37:43;22.20;;;16.10;;
14858;SDS011;7521;51.700;6.874;2023-05-10T02:40:50;20.53;;;15.43;;
14858;SDS011;7521;51.700;6.874;2023-05-10T02:43:56;20.90;;;15.47;;
14858;SDS011;7521;51.700;6.874;2023-05-10T02:47:02;21.77;;;16.33;;
14858;SDS011;7521;51.700;6.874;2023-05-10T02:50:09;21.80;;;16.53;;
14858;SDS011;7521;51.700;6.874;2023-05-10T02:53:27;21.73;;;15.30;;
14858;SDS011;7521;51.700;6.874;2023-05-10T02:56:35;20.57;;;16.20;;
14858;SDS011;7521;51.700;6.874;2023-05-10T02:59:41;21.23;;;16.27;;
14858;SDS011;7521;51.700;6.874;2023-05-10T03:02:47;24.03;;;16.43;;
14858;SDS011;7521;51.700;6.874;2023-05-10T03:05:52;23.33;;;17.35;;
14858;SDS011;7521;51.700;6.874;2023-05-10T03:09:01;24.00;;;16.27;;
14858;SDS011;7521;51.700;6.874;2023-05-10T03:18:23;27.57;;;19.33;;
14858;SDS011;7521;51.700;6.874;2023-05-10T03:21:30;25.50;;;18.40;;
14858;SDS011;7521;51.700;6.874;2023-05-10T03:24:36;29.73;;;19.87;;
14858;SDS011;7521;51.700;6.874;2023-05-10T03:27:44;33.03;;;22.90;;
14858;SDS011;7521;51.700;6.874;2023-05-10T03:30:50;29.87;;;20.83;;
14858;SDS011;7521;51.700;6.874;2023-05-10T03:33:57;34.07;;;22.63;;
14858;SDS011;7521;51.700;6.874;2023-05-10T03:37:02;32.88;;;24.08;;
14858;SDS011;7521;51.700;6.874;2023-05-10T03:40:07;32.15;;;22.92;;
14858;SDS011;7521;51.700;6.874;2023-05-10T03:43:13;31.47;;;23.17;;
14858;SDS011;7521;51.700;6.874;2023-05-10T03:46:18;36.22;;;24.70;;
14858;SDS011;7521;51.700;6.874;2023-05-10T03:49:23;35.95;;;24.48;;
14858;SDS011;7521;51.700;6.874;2023-05-10T03:52:28;38.43;;;25.83;;
14858;SDS011;7521;51.700;6.874;2023-05-10T03:55:33;38.47;;;26.38;;
14858;SDS011;7521;51.700;6.874;2023-05-10T03:58:41;37.87;;;25.43;;
14858;SDS011;7521;51.700;6.874;2023-05-10T04:01:46;39.20;;;26.42;;
14858;SDS011;7521;51.700;6.874;2023-05-10T04:04:51;39.08;;;26.35;;
14858;SDS011;7521;51.700;6.874;2023-05-10T04:07:56;38.50;;;26.42;;
14858;SDS011;7521;51.700;6.874;2023-05-10T04:11:05;40.72;;;27.23;;
14858;SDS011;7521;51.700;6.874;2023-05-10T04:14:11;46.40;;;27.60;;
14858;SDS011;7521;51.700;6.874;2023-05-10T04:17:16;41.37;;;28.53;;
14858;SDS011;7521;51.700;6.874;2023-05-10T04:20:21;39.15;;;27.88;;
14858;SDS011;7521;51.700;6.874;2023-05-10T04:23:27;42.90;;;27.43;;
14858;SDS011;7521;51.700;6.874;2023-05-10T04:26:32;42.93;;;28.37;;
14858;SDS011;7521;51.700;6.874;2023-05-10T04:29:37;45.85;;;29.55;;
14858;SDS011;7521;51.700;6.874;2023-05-10T04:32:43;45.03;;;28.83;;
14858;SDS011;7521;51.700;6.874;2023-05-10T04:35:48;48.53;;;31.30;;
14858;SDS011;7521;51.700;6.874;2023-05-10T04:38:53;49.33;;;31.77;;
14858;SDS011;7521;51.700;6.874;2023-05-10T04:41:58;49.03;;;31.07;;
14858;SDS011;7521;51.700;6.874;2023-05-10T04:45:04;49.43;;;31.47;;
14858;SDS011;7521;51.700;6.874;2023-05-10T04:48:09;53.17;;;33.90;;
14858;SDS011;7521;51.700;6.874;2023-05-10T04:51:14;50.70;;;33.83;;
14858;SDS011;7521;51.700;6.874;2023-05-10T04:54:19;51.80;;;32.87;;
14858;SDS011;7521;51.700;6.874;2023-05-10T04:57:24;52.83;;;33.20;;
14858;SDS011;7521;51.700;6.874;2023-05-10T05:00:30;49.63;;;32.70;;
14858;SDS011;7521;51.700;6.874;2023-05-10T05:03:35;46.63;;;31.42;;
14858;SDS011;7521;51.700;6.874;2023-05-10T05:06:41;54.43;;;35.37;;
14858;SDS011;7521;51.700;6.874;2023-05-10T05:09:46;54.53;;;34.35;;
14858;SDS011;7521;51.700;6.874;2023-05-10T05:12:51;55.45;;;34.40;;
14858;SDS011;7521;51.700;6.874;2023-05-10T05:15:56;55.40;;;34.53;;
14858;SDS011;7521;51.700;6.874;2023-05-10T05:19:01;58.40;;;36.15;;
14858;SDS011;7521;51.700;6.874;2023-05-10T05:22:06;54.53;;;33.92;;
14858;SDS011;7521;51.700;6.874;2023-05-10T05:25:12;58.50;;;35.03;;
14858;SDS011;7521;51.700;6.874;2023-05-10T05:28:18;57.50;;;34.53;;
14858;SDS011;7521;51.700;6.874;2023-05-10T05:31:24;59.73;;;36.00;;
14858;SDS011;7521;51.700;6.874;2023-05-10T05:34:29;58.37;;;35.70;;
14858;SDS011;7521;51.700;6.874;2023-05-10T05:37:34;61.53;;;34.95;;
14858;SDS011;7521;51.700;6.874;2023-05-10T05:40:40;55.97;;;35.10;;
14858;SDS011;7521;51.700;6.874;2023-05-10T05:43:45;56.05;;;35.35;;
14858;SDS011;7521;51.700;6.874;2023-05-10T05:46:50;61.40;;;35.97;;
14858;SDS011;7521;51.700;6.874;2023-05-10T05:49:55;58.42;;;35.58;;
14858;SDS011;7521;51.700;6.874;2023-05-10T05:53:00;65.60;;;40.63;;
14858;SDS011;7521;51.700;6.874;2023-05-10T05:56:05;61.28;;;36.88;;
14858;SDS011;7521;51.700;6.874;2023-05-10T05:59:11;62.70;;;38.97;;
14858;SDS011;7521;51.700;6.874;2023-05-10T06:02:16;62.67;;;37.57;;
14858;SDS011;7521;51.700;6.874;2023-05-10T06:05:21;64.65;;;38.40;;
14858;SDS011;7521;51.700;6.874;2023-05-10T06:08:27;58.57;;;37.37;;
14858;SDS011;7521;51.700;6.874;2023-05-10T06:11:32;64.33;;;38.77;;
14858;SDS011;7521;51.700;6.874;2023-05-10T06:14:37;65.15;;;38.70;;
14858;SDS011;7521;51.700;6.874;2023-05-10T06:17:42;69.35;;;40.22;;
14858;SDS011;7521;51.700;6.874;2023-05-10T06:20:49;65.03;;;39.80;;
14858;SDS011;7521;51.700;6.874;2023-05-10T06:23:54;69.80;;;40.57;;
14858;SDS011;7521;51.700;6.874;2023-05-10T06:26:59;64.20;;;39.60;;
14858;SDS011;7521;51.700;6.874;2023-05-10T06:30:08;66.07;;;40.53;;
14858;SDS011;7521;51.700;6.874;2023-05-10T06:33:13;61.10;;;39.87;;
14858;SDS011;7521;51.700;6.874;2023-05-10T06:36:19;61.53;;;39.70;;
14858;SDS011;7521;51.700;6.874;2023-05-10T06:39:24;59.45;;;38.95;;
14858;SDS011;7521;51.700;6.874;2023-05-10T06:42:29;61.45;;;38.80;;
14858;SDS011;7521;51.700;6.874;2023-05-10T06:45:34;62.05;;;38.72;;
14858;SDS011;7521;51.700;6.874;2023-05-10T06:48:39;60.30;;;38.28;;
14858;SDS011;7521;51.700;6.874;2023-05-10T06:51:44;57.78;;;38.50;;
14858;SDS011;7521;51.700;6.874;2023-05-10T06:54:50;55.77;;;36.87;;
14858;SDS011;7521;51.700;6.874;2023-05-10T06:57:55;52.27;;;36.33;;
14858;SDS011;7521;51.700;6.874;2023-05-10T07:01:03;47.67;;;34.70;;
14858;SDS011;7521;51.700;6.874;2023-05-10T07:04:08;48.07;;;34.60;;
14858;SDS011;7521;51.700;6.874;2023-05-10T07:07:14;48.60;;;34.33;;
14858;SDS011;7521;51.700;6.874;2023-05-10T07:10:19;46.57;;;33.87;;
14858;SDS011;7521;51.700;6.874;2023-05-10T07:13:24;44.67;;;32.67;;
14858;SDS011;7521;51.700;6.874;2023-05-10T07:16:30;44.67;;;32.90;;
14858;SDS011;7521;51.700;6.874;2023-05-10T07:19:35;45.97;;;35.00;;
14858;SDS011;7521;51.700;6.874;2023-05-10T07:22:40;47.67;;;34.20;;
14858;SDS011;7521;51.700;6.874;2023-05-10T07:25:46;54.28;;;35.33;;
14858;SDS011;7521;51.700;6.874;2023-05-10T07:28:51;49.47;;;33.53;;
14858;SDS011;7521;51.700;6.874;2023-05-10T07:31:56;46.78;;;34.45;;
14858;SDS011;7521;51.700;6.874;2023-05-10T07:35:01;44.08;;;33.08;;
14858;SDS011;7521;51.700;6.874;2023-05-10T07:38:07;44.30;;;34.07;;
14858;SDS011;7521;51.700;6.874;2023-05-10T07:41:12;50.20;;;35.90;;
14858;SDS011;7521;51.700;6.874;2023-05-10T07:44:17;49.57;;;35.90;;
14858;SDS011;7521;51.700;6.874;2023-05-10T07:47:25;45.67;;;34.70;;
14858;SDS011;7521;51.700;6.874;2023-05-10T07:50:30;44.50;;;34.33;;
14858;SDS011;7521;51.700;6.874;2023-05-10T07:53:37;46.00;;;33.70;;
14858;SDS011;7521;51.700;6.874;2023-05-10T07:56:42;45.97;;;33.50;;
14858;SDS011;7521;51.700;6.874;2023-05-10T07:59:51;41.53;;;32.67;;
14858;SDS011;7521;51.700;6.874;2023-05-10T08:02:57;43.63;;;31.70;;
14858;SDS011;7521;51.700;6.874;2023-05-10T08:06:02;46.40;;;31.10;;
14858;SDS011;7521;51.700;6.874;2023-05-10T08:09:08;40.80;;;30.57;;
14858;SDS011;7521;51.700;6.874;2023-05-10T08:12:13;44.00;;;33.13;;
14858;SDS011;7521;51.700;6.874;2023-05-10T08:15:18;45.10;;;34.33;;
14858;SDS011;7521;51.700;6.874;2023-05-10T08:18:23;41.20;;;33.20;;
14858;SDS011;7521;51.700;6.874;2023-05-10T08:21:29;39.57;;;30.57;;
14858;SDS011;7521;51.700;6.874;2023-05-10T08:24:34;37.55;;;29.40;;
14858;SDS011;7521;51.700;6.874;2023-05-10T08:27:43;36.97;;;29.07;;
14858;SDS011;7521;51.700;6.874;2023-05-10T08:30:49;42.23;;;30.07;;
14858;SDS011;7521;51.700;6.874;2023-05-10T08:33:54;38.60;;;27.43;;
14858;SDS011;7521;51.700;6.874;2023-05-10T08:36:59;33.93;;;26.83;;
14858;SDS011;7521;51.700;6.874;2023-05-10T08:40:05;32.53;;;27.35;;
14858;SDS011;7521;51.700;6.874;2023-05-10T08:43:11;33.90;;;27.20;;
14858;SDS011;7521;51.700;6.874;2023-05-10T08:46:17;28.83;;;23.57;;
14858;SDS011;7521;51.700;6.874;2023-05-10T08:49:22;25.63;;;20.83;;
14858;SDS011;7521;51.700;6.874;2023-05-10T08:52:29;28.10;;;21.47;;
14858;SDS011;7521;51.700;6.874;2023-05-10T08:55:35;29.63;;;22.63;;
14858;SDS011;7521;51.700;6.874;2023-05-10T08:58:42;30.73;;;21.60;;
14858;SDS011;7521;51.700;6.874;2023-05-10T09:01:47;29.03;;;21.90;;
14858;SDS011;7521;51.700;6.874;2023-05-10T09:04:54;25.47;;;20.20;;
14858;SDS011;7521;51.700;6.874;2023-05-10T09:07:59;30.27;;;21.50;;
14858;SDS011;7521;51.700;6.874;2023-05-10T09:11:05;30.40;;;22.63;;
14858;SDS011;7521;51.700;6.874;2023-05-10T09:14:11;33.07;;;22.10;;
14858;SDS011;7521;51.700;6.874;2023-05-10T09:17:17;32.90;;;23.40;;
14858;SDS011;7521;51.700;6.874;2023-05-10T09:20:22;36.53;;;23.50;;
14858;SDS011;7521;51.700;6.874;2023-05-10T09:23:27;34.50;;;23.77;;
14858;SDS011;7521;51.700;6.874;2023-05-10T09:26:45;41.27;;;27.40;;
14858;SDS011;7521;51.700;6.874;2023-05-10T09:29:51;42.43;;;25.47;;
14858;SDS011;7521;51.700;6.874;2023-05-10T09:32:59;35.17;;;24.00;;
14858;SDS011;7521;51.700;6.874;2023-05-10T09:36:08;38.20;;;24.03;;
14858;SDS011;7521;51.700;6.874;2023-05-10T09:39:13;33.17;;;23.37;;
14858;SDS011;7521;51.700;6.874;2023-05-10T09:42:18;35.50;;;24.70;;
14858;SDS011;7521;51.700;6.874;2023-05-10T09:45:24;37.67;;;24.47;;
14858;SDS011;7521;51.700;6.874;2023-05-10T09:48:30;38.63;;;26.03;;
14858;SDS011;7521;51.700;6.874;2023-05-10T09:51:35;35.03;;;23.87;;
14858;SDS011;7521;51.700;6.874;2023-05-10T09:54:42;37.60;;;25.27;;
14858;SDS011;7521;51.700;6.874;2023-05-10T09:57:58;38.70;;;26.00;;
14858;SDS011;7521;51.700;6.874;2023-05-10T10:01:03;39.13;;;25.20;;
14858;SDS011;7521;51.700;6.874;2023-05-10T10:04:09;32.80;;;23.87;;
14858;SDS011;7521;51.700;6.874;2023-05-10T10:07:14;31.73;;;22.83;;
14858;SDS011;7521;51.700;6.874;2023-05-10T10:10:19;32.63;;;22.77;;
14858;SDS011;7521;51.700;6.874;2023-05-10T10:13:24;25.50;;;20.75;;
14858;SDS011;7521;51.700;6.874;2023-05-10T10:16:30;27.03;;;19.63;;
14858;SDS011;7521;51.700;6.874;2023-05-10T10:19:35;28.13;;;18.83;;
14858;SDS011;7521;51.700;6.874;2023-05-10T10:22:41;29.43;;;19.90;;
14858;SDS011;7521;51.700;6.874;2023-05-10T10:25:46;26.90;;;20.13;;
14858;SDS011;7521;51.700;6.874;2023-05-10T10:28:58;27.70;;;20.30;;
14858;SDS011;7521;51.700;6.874;2023-05-10T10:35:13;25.27;;;18.77;;
14858;SDS011;7521;51.700;6.874;2023-05-10T10:38:20;26.97;;;20.10;;
14858;SDS011;7521;51.700;6.874;2023-05-10T10:41:35;24.70;;;18.17;;
14858;SDS011;7521;51.700;6.874;2023-05-10T10:44:40;23.07;;;18.70;;
14858;SDS011;7521;51.700;6.874;2023-05-10T10:47:46;25.10;;;18.27;;
14858;SDS011;7521;51.700;6.874;2023-05-10T10:50:55;23.43;;;17.30;;
14858;SDS011;7521;51.700;6.874;2023-05-10T10:54:08;22.83;;;16.60;;
14858;SDS011;7521;51.700;6.874;2023-05-10T10:57:13;20.57;;;16.60;;
14858;SDS011;7521;51.700;6.874;2023-05-10T11:00:26;21.10;;;16.13;;
14858;SDS011;7521;51.700;6.874;2023-05-10T11:03:35;21.87;;;15.57;;
14858;SDS011;7521;51.700;6.874;2023-05-10T11:06:40;20.80;;;15.68;;
14858;SDS011;7521;51.700;6.874;2023-05-10T11:09:47;19.97;;;15.47;;
14858;SDS011;7521;51.700;6.874;2023-05-10T11:15:59;20.43;;;15.10;;
14858;SDS011;7521;51.700;6.874;2023-05-10T11:19:15;22.73;;;17.73;;
14858;SDS011;7521;51.700;6.874;2023-05-10T11:22:20;27.73;;;17.60;;
14858;SDS011;7521;51.700;6.874;2023-05-10T11:25:28;24.80;;;18.13;;
14858;SDS011;7521;51.700;6.874;2023-05-10T11:28:33;25.63;;;18.10;;
14858;SDS011;7521;51.700;6.874;2023-05-10T11:31:45;23.37;;;17.97;;
14858;SDS011;7521;51.700;6.874;2023-05-10T11:34:51;24.03;;;18.90;;
14858;SDS011;7521;51.700;6.874;2023-05-10T11:37:56;22.92;;;17.50;;
14858;SDS011;7521;51.700;6.874;2023-05-10T11:41:01;20.92;;;16.85;;
14858;SDS011;7521;51.700;6.874;2023-05-10T11:44:07;20.13;;;17.58;;
14858;SDS011;7521;51.700;6.874;2023-05-10T11:47:14;22.07;;;16.83;;
14858;SDS011;7521;51.700;6.874;2023-05-10T11:50:19;22.33;;;16.20;;
14858;SDS011;7521;51.700;6.874;2023-05-10T11:53:27;20.67;;;17.13;;
14858;SDS011;7521;51.700;6.874;2023-05-10T11:56:32;24.70;;;19.07;;
14858;SDS011;7521;51.700;6.874;2023-05-10T11:59:37;21.80;;;17.33;;
14858;SDS011;7521;51.700;6.874;2023-05-10T12:02:43;20.52;;;16.40;;
14858;SDS011;7521;51.700;6.874;2023-05-10T12:05:48;22.53;;;17.27;;
14858;SDS011;7521;51.700;6.874;2023-05-10T12:08:53;21.17;;;16.70;;
14858;SDS011;7521;51.700;6.874;2023-05-10T12:11:58;22.50;;;17.15;;
14858;SDS011;7521;51.700;6.874;2023-05-10T12:15:04;22.38;;;17.33;;
14858;SDS011;7521;51.700;6.874;2023-05-10T12:18:11;21.37;;;18.30;;
14858;SDS011;7521;51.700;6.874;2023-05-10T12:21:17;22.70;;;18.67;;
14858;SDS011;7521;51.700;6.874;2023-05-10T12:24:23;21.17;;;17.37;;
14858;SDS011;7521;51.700;6.874;2023-05-10T12:27:33;20.20;;;15.53;;
14858;SDS011;7521;51.700;6.874;2023-05-10T12:30:38;17.23;;;15.17;;
14858;SDS011;7521;51.700;6.874;2023-05-10T12:33:44;17.97;;;15.70;;
14858;SDS011;7521;51.700;6.874;2023-05-10T12:36:51;20.17;;;15.20;;
14858;SDS011;7521;51.700;6.874;2023-05-10T12:39:56;22.60;;;15.27;;
14858;SDS011;7521;51.700;6.874;2023-05-10T12:43:01;16.67;;;14.50;;
14858;SDS011;7521;51.700;6.874;2023-05-10T12:46:10;16.20;;;12.73;;
14858;SDS011;7521;51.700;6.874;2023-05-10T12:49:16;16.30;;;13.67;;
14858;SDS011;7521;51.700;6.874;2023-05-10T12:52:24;15.93;;;13.57;;
14858;SDS011;7521;51.700;6.874;2023-05-10T12:55:30;18.03;;;14.13;;
14858;SDS011;7521;51.700;6.874;2023-05-10T12:58:35;16.73;;;13.50;;
14858;SDS011;7521;51.700;6.874;2023-05-10T13:01:40;16.42;;;12.65;;
14858;SDS011;7521;51.700;6.874;2023-05-10T13:04:45;13.02;;;11.25;;
14858;SDS011;7521;51.700;6.874;2023-05-10T13:07:51;14.20;;;12.27;;
14858;SDS011;7521;51.700;6.874;2023-05-10T13:10:56;15.00;;;11.60;;
14858;SDS011;7521;51.700;6.874;2023-05-10T13:14:01;13.13;;;11.00;;
14858;SDS011;7521;51.700;6.874;2023-05-10T13:17:08;14.70;;;12.37;;
14858;SDS011;7521;51.700;6.874;2023-05-10T13:20:13;17.90;;;14.43;;
14858;SDS011;7521;51.700;6.874;2023-05-10T13:23:19;17.33;;;15.23;;
14858;SDS011;7521;51.700;6.874;2023-05-10T13:26:24;18.43;;;16.23;;
14858;SDS011;7521;51.700;6.874;2023-05-10T13:29:30;21.30;;;16.80;;
14858;SDS011;7521;51.700;6.874;2023-05-10T13:32:35;20.10;;;17.00;;
14858;SDS011;7521;51.700;6.874;2023-05-10T13:35:40;20.90;;;16.17;;
14858;SDS011;7521;51.700;6.874;2023-05-10T13:38:46;19.15;;;16.48;;
14858;SDS011;7521;51.700;6.874;2023-05-10T13:41:51;22.88;;;16.70;;
14858;SDS011;7521;51.700;6.874;2023-05-10T13:44:56;20.93;;;15.90;;
14858;SDS011;7521;51.700;6.874;2023-05-10T13:48:01;17.33;;;14.98;;
14858;SDS011;7521;51.700;6.874;2023-05-10T13:51:07;18.33;;;13.73;;
14858;SDS011;7521;51.700;6.874;2023-05-10T13:54:14;16.70;;;13.47;;
14858;SDS011;7521;51.700;6.874;2023-05-10T13:57:20;16.83;;;11.63;;
14858;SDS011;7521;51.700;6.874;2023-05-10T14:00:25;12.97;;;11.40;;
14858;SDS011;7521;51.700;6.874;2023-05-10T14:03:30;13.93;;;12.25;;
14858;SDS011;7521;51.700;6.874;2023-05-10T14:06:36;18.57;;;13.37;;
14858;SDS011;7521;51.700;6.874;2023-05-10T14:09:41;17.53;;;12.07;;
14858;SDS011;7521;51.700;6.874;2023-05-10T14:12:46;15.32;;;11.48;;
14858;SDS011;7521;51.700;6.874;2023-05-10T14:15:52;12.05;;;10.80;;
14858;SDS011;7521;51.700;6.874;2023-05-10T14:18:57;15.50;;;11.37;;
14858;SDS011;7521;51.700;6.874;2023-05-10T14:22:02;11.70;;;9.88;;
14858;SDS011;7521;51.700;6.874;2023-05-10T14:25:08;13.70;;;10.00;;
14858;SDS011;7521;51.700;6.874;2023-05-10T14:28:13;10.90;;;9.07;;
14858;SDS011;7521;51.700;6.874;2023-05-10T14:31:19;13.67;;;9.37;;
14858;SDS011;7521;51.700;6.874;2023-05-10T14:34:25;11.50;;;8.87;;
14858;SDS011;7521;51.700;6.874;2023-05-10T14:37:30;11.43;;;9.63;;
14858;SDS011;7521;51.700;6.874;2023-05-10T14:40:35;11.90;;;8.93;;
14858;SDS011;7521;51.700;6.874;2023-05-10T14:43:41;11.63;;;9.47;;
14858;SDS011;7521;51.700;6.874;2023-05-10T14:46:46;11.80;;;9.85;;
14858;SDS011;7521;51.700;6.874;2023-05-10T14:49:52;11.40;;;9.63;;
14858;SDS011;7521;51.700;6.874;2023-05-10T14:52:57;14.00;;;9.77;;
14858;SDS011;7521;51.700;6.874;2023-05-10T14:56:03;12.83;;;9.13;;
14858;SDS011;7521;51.700;6.874;2023-05-10T14:59:08;11.50;;;8.50;;
14858;SDS011;7521;51.700;6.874;2023-05-10T15:02:13;12.10;;;8.93;;
14858;SDS011;7521;51.700;6.874;2023-05-10T15:05:18;14.50;;;9.32;;
14858;SDS011;7521;51.700;6.874;2023-05-10T15:08:24;8.27;;;6.63;;
14858;SDS011;7521;51.700;6.874;2023-05-10T15:11:29;9.77;;;8.50;;
14858;SDS011;7521;51.700;6.874;2023-05-10T15:14:34;10.70;;;8.95;;
14858;SDS011;7521;51.700;6.874;2023-05-10T15:17:41;12.40;;;7.90;;
14858;SDS011;7521;51.700;6.874;2023-05-10T15:20:46;9.18;;;8.02;;
14858;SDS011;7521;51.700;6.874;2023-05-10T15:23:51;9.23;;;7.63;;
14858;SDS011;7521;51.700;6.874;2023-05-10T15:26:56;8.88;;;7.35;;
14858;SDS011;7521;51.700;6.874;2023-05-10T15:30:01;10.93;;;8.85;;
14858;SDS011;7521;51.700;6.874;2023-05-10T15:33:07;11.13;;;9.10;;
14858;SDS011;7521;51.700;6.874;2023-05-10T15:36:13;13.10;;;10.50;;
14858;SDS011;7521;51.700;6.874;2023-05-10T15:39:18;9.27;;;7.95;;
14858;SDS011;7521;51.700;6.874;2023-05-10T15:42:23;11.55;;;9.02;;
14858;SDS011;7521;51.700;6.874;2023-05-10T15:45:28;14.37;;;8.63;;
14858;SDS011;7521;51.700;6.874;2023-05-10T15:48:34;10.43;;;9.33;;
14858;SDS011;7521;51.700;6.874;2023-05-10T15:51:39;9.70;;;7.67;;
14858;SDS011;7521;51.700;6.874;2023-05-10T15:54:44;11.77;;;8.20;;
14858;SDS011;7521;51.700;6.874;2023-05-10T15:57:49;11.30;;;7.57;;
14858;SDS011;7521;51.700;6.874;2023-05-10T16:00:55;9.33;;;7.97;;
14858;SDS011;7521;51.700;6.874;2023-05-10T16:04:01;9.50;;;8.10;;
14858;SDS011;7521;51.700;6.874;2023-05-10T16:07:06;9.77;;;8.60;;
14858;SDS011;7521;51.700;6.874;2023-05-10T16:10:12;12.17;;;9.50;;
14858;SDS011;7521;51.700;6.874;2023-05-10T16:13:17;11.52;;;9.30;;
14858;SDS011;7521;51.700;6.874;2023-05-10T16:16:22;10.73;;;9.35;;
14858;SDS011;7521;51.700;6.874;2023-05-10T16:19:28;12.03;;;9.20;;
14858;SDS011;7521;51.700;6.874;2023-05-10T16:22:33;11.13;;;9.40;;
14858;SDS011;7521;51.700;6.874;2023-05-10T16:25:39;9.57;;;8.47;;
14858;SDS011;7521;51.700;6.874;2023-05-10T16:28:44;14.30;;;7.83;;
14858;SDS011;7521;51.700;6.874;2023-05-10T16:31:49;12.13;;;8.67;;
14858;SDS011;7521;51.700;6.874;2023-05-10T16:34:54;8.67;;;6.73;;
14858;SDS011;7521;51.700;6.874;2023-05-10T16:38:00;8.97;;;7.20;;
14858;SDS011;7521;51.700;6.874;2023-05-10T16:41:05;9.20;;;6.97;;
14858;SDS011;7521;51.700;6.874;2023-05-10T16:44:10;6.63;;;5.63;;
14858;SDS011;7521;51.700;6.874;2023-05-10T16:47:16;6.70;;;5.70;;
14858;SDS011;7521;51.700;6.874;2023-05-10T16:50:21;6.00;;;4.87;;
14858;SDS011;7521;51.700;6.874;2023-05-10T16:53:26;8.53;;;5.43;;
14858;SDS011;7521;51.700;6.874;2023-05-10T16:56:32;8.83;;;7.33;;
14858;SDS011;7521;51.700;6.874;2023-05-10T16:59:37;8.63;;;6.97;;
14858;SDS011;7521;51.700;6.874;2023-05-10T17:02:43;10.27;;;6.45;;
14858;SDS011;7521;51.700;6.874;2023-05-10T17:05:48;7.75;;;6.10;;
14858;SDS011;7521;51.700;6.874;2023-05-10T17:08:53;11.23;;;7.55;;
14858;SDS011;7521;51.700;6.874;2023-05-10T17:11:58;11.07;;;7.90;;
14858;SDS011;7521;51.700;6.874;2023-05-10T17:15:04;10.38;;;8.75;;
14858;SDS011;7521;51.700;6.874;2023-05-10T17:18:10;9.87;;;8.83;;
14858;SDS011;7521;51.700;6.874;2023-05-10T17:21:15;13.57;;;8.87;;
14858;SDS011;7521;51.700;6.874;2023-05-10T17:24:20;13.47;;;8.93;;
14858;SDS011;7521;51.700;6.874;2023-05-10T17:27:26;10.37;;;9.13;;
14858;SDS011;7521;51.700;6.874;2023-05-10T17:30:32;15.43;;;10.83;;
14858;SDS011;7521;51.700;6.874;2023-05-10T17:33:37;12.60;;;10.27;;
14858;SDS011;7521;51.700;6.874;2023-05-10T17:36:43;11.30;;;10.05;;
14858;SDS011;7521;51.700;6.874;2023-05-10T17:39:48;13.88;;;10.30;;
14858;SDS011;7521;51.700;6.874;2023-05-10T17:42:53;13.33;;;11.27;;
14858;SDS011;7521;51.700;6.874;2023-05-10T17:45:58;13.88;;;10.77;;
14858;SDS011;7521;51.700;6.874;2023-05-10T17:49:03;13.05;;;9.95;;
14858;SDS011;7521;51.700;6.874;2023-05-10T17:52:08;13.30;;;10.07;;
14858;SDS011;7521;51.700;6.874;2023-05-10T17:55:16;14.00;;;9.38;;
14858;SDS011;7521;51.700;6.874;2023-05-10T17:58:21;9.67;;;8.60;;
14858;SDS011;7521;51.700;6.874;2023-05-10T18:01:27;9.43;;;8.23;;
14858;SDS011;7521;51.700;6.874;2023-05-10T18:04:32;11.48;;;8.23;;
14858;SDS011;7521;51.700;6.874;2023-05-10T18:07:37;11.33;;;9.30;;
14858;SDS011;7521;51.700;6.874;2023-05-10T18:10:43;9.53;;;8.53;;
14858;SDS011;7521;51.700;6.874;2023-05-10T18:13:49;11.27;;;9.00;;
14858;SDS011;7521;51.700;6.874;2023-05-10T18:16:54;9.35;;;8.45;;
14858;SDS011;7521;51.700;6.874;2023-05-10T18:19:59;9.43;;;8.07;;
14858;SDS011;7521;51.700;6.874;2023-05-10T18:23:04;10.27;;;8.43;;
14858;SDS011;7521;51.700;6.874;2023-05-10T18:26:10;10.30;;;8.57;;
14858;SDS011;7521;51.700;6.874;2023-05-10T18:29:15;9.10;;;8.07;;
14858;SDS011;7521;51.700;6.874;2023-05-10T18:32:21;8.20;;;6.77;;
14858;SDS011;7521;51.700;6.874;2023-05-10T18:35:27;9.33;;;8.07;;
14858;SDS011;7521;51.700;6.874;2023-05-10T18:38:32;10.20;;;7.30;;
14858;SDS011;7521;51.700;6.874;2023-05-10T18:41:37;8.27;;;7.18;;
14858;SDS011;7521;51.700;6.874;2023-05-10T18:44:42;9.93;;;7.80;;
14858;SDS011;7521;51.700;6.874;2023-05-10T18:47:48;10.20;;;7.43;;
14858;SDS011;7521;51.700;6.874;2023-05-10T18:50:53;9.45;;;7.68;;
14858;SDS011;7521;51.700;6.874;2023-05-10T18:53:58;10.45;;;7.75;;
14858;SDS011;7521;51.700;6.874;2023-05-10T18:57:03;9.30;;;8.13;;
14858;SDS011;7521;51.700;6.874;2023-05-10T19:00:10;9.60;;;8.00;;